createdAt,value
2023-03-29T00:02:09.439Z,5.30
2023-03-29T00:06:02.509Z,5.50
2023-03-29T00:09:34.515Z,5.70
2023-03-29T00:12:57.394Z,5.80
2023-03-29T00:16:27.917Z,6.00
2023-03-29T00:20:35.246Z,6.10
2023-03-29T00:24:13.982Z,6.10
2023-03-29T00:27:40.013Z,6.30
2023-03-29T00:31:23.286Z,6.40
2023-03-29T00:34:52.772Z,6.50
2023-03-29T00:38:18.559Z,6.60
2023-03-29T00:41:40.693Z,6.60
2023-03-29T00:45:18.969Z,6.50
2023-03-29T00:48:41.974Z,6.50
2023-03-29T00:52:08.120Z,6.60
2023-03-29T00:55:35.536Z,6.70
2023-03-29T00:59:13.738Z,6.80
2023-03-29T01:02:39.913Z,6.80
2023-03-29T01:06:07.691Z,6.90
2023-03-29T01:09:33.474Z,6.90
2023-03-29T01:13:03.803Z,6.90
2023-03-29T01:16:28.657Z,6.80
2023-03-29T01:20:08.232Z,6.70
2023-03-29T01:23:51.198Z,6.60
2023-03-29T01:27:48.032Z,6.50
2023-03-29T01:31:57.195Z,6.50
2023-03-29T01:35:55.275Z,6.40
2023-03-29T01:39:22.215Z,6.10
2023-03-29T01:42:54.349Z,5.80
2023-03-29T01:46:39.943Z,5.60
2023-03-29T01:50:15.614Z,5.50
2023-03-29T01:54:15.975Z,5.30
2023-03-29T01:57:44.105Z,5.00
2023-03-29T02:01:19.672Z,4.80
2023-03-29T02:04:49.037Z,4.70
2023-03-29T02:08:13.465Z,4.60
2023-03-29T02:11:36.940Z,4.50
2023-03-29T02:15:00.929Z,4.60
2023-03-29T02:18:24.783Z,4.70
2023-03-29T02:22:13.001Z,4.90
2023-03-29T02:25:47.419Z,4.90
2023-03-29T02:33:46.589Z,5.00
2023-03-29T02:37:22.658Z,5.20
2023-03-29T02:41:10.784Z,5.30
2023-03-29T02:44:41.467Z,5.30
2023-03-29T02:48:09.245Z,5.30
2023-03-29T02:51:34.118Z,5.40
2023-03-29T02:54:57.116Z,5.40
2023-03-29T02:58:19.209Z,5.30
2023-03-29T03:01:45.112Z,5.20
2023-03-29T03:05:09.301Z,5.10
2023-03-29T03:08:32.252Z,4.90
2023-03-29T03:11:54.435Z,4.80
2023-03-29T03:15:16.894Z,4.80
2023-03-29T03:18:39.795Z,4.90
2023-03-29T03:22:02.110Z,5.00
2023-03-29T03:25:24.617Z,5.00
2023-03-29T03:28:46.781Z,5.00
2023-03-29T03:32:29.823Z,4.90
2023-03-29T03:36:15.489Z,4.80
2023-03-29T03:40:05.921Z,4.60
2023-03-29T03:43:30.189Z,4.50
2023-03-29T03:46:57.106Z,4.40
2023-03-29T03:50:20.234Z,4.40
2023-03-29T03:54:04.621Z,4.50
2023-03-29T03:57:36.334Z,4.50
2023-03-29T04:01:12.338Z,4.60
2023-03-29T04:04:54.069Z,4.80
2023-03-29T04:08:21.572Z,4.90
2023-03-29T04:12:09.869Z,5.00
2023-03-29T04:42:24.837Z,5.10
2023-03-29T04:45:59.952Z,5.10
2023-03-29T04:50:40.544Z,5.00
2023-03-29T08:52:35.240Z,22.30
2023-03-29T09:16:19.041Z,20.20
2023-03-29T09:20:34.989Z,21.70
2023-03-29T09:25:06.269Z,22.50
2023-03-29T09:34:16.122Z,23.60
2023-03-29T09:47:03.101Z,22.40
2023-03-29T09:52:10.761Z,22.90
2023-03-29T10:19:19.180Z,22.10
2023-03-29T11:43:42.562Z,20.90
2023-03-29T11:47:46.937Z,19.60
2023-03-29T11:51:28.190Z,20.00
2023-03-29T11:54:55.259Z,20.00
2023-03-29T11:58:29.417Z,19.80
2023-03-29T12:02:37.117Z,19.50
2023-03-29T12:06:34.139Z,19.30
2023-03-29T12:10:15.025Z,19.10
2023-03-29T12:13:50.821Z,19.10
2023-03-29T12:17:19.703Z,19.20
2023-03-29T12:20:42.780Z,19.30
2023-03-29T12:24:15.660Z,19.50
2023-03-29T12:28:07.995Z,19.40
2023-03-29T12:32:01.808Z,19.50
2023-03-29T12:36:06.476Z,19.20
2023-03-29T12:39:50.650Z,19.30
2023-03-29T12:43:34.758Z,19.40
2023-03-29T12:47:31.571Z,19.90
2023-03-29T12:51:01.189Z,19.70
2023-03-29T12:54:28.652Z,19.60
2023-03-29T12:58:27.826Z,19.70
2023-03-29T13:02:14.209Z,19.70
2023-03-29T13:05:37.083Z,19.90
2023-03-29T13:09:23.215Z,20.00
2023-03-29T13:12:47.790Z,20.10
2023-03-29T13:16:22.752Z,20.20
2023-03-29T13:19:49.326Z,20.10
2023-03-29T13:23:22.249Z,20.10
2023-03-29T13:27:37.625Z,19.90
2023-03-29T13:31:27.102Z,20.20
2023-03-29T13:35:24.861Z,19.90
2023-03-29T13:38:53.527Z,19.40
2023-03-29T13:42:24.502Z,19.00
2023-03-29T13:45:58.125Z,19.00
2023-03-29T13:49:25.573Z,19.40
2023-03-29T13:53:10.417Z,19.50
2023-03-29T13:56:51.509Z,19.80
2023-03-29T14:00:22.471Z,19.90
2023-03-29T14:03:48.950Z,20.00
2023-03-29T14:07:14.778Z,19.90
2023-03-29T14:10:41.429Z,19.80
2023-03-29T14:14:10.998Z,19.90
2023-03-29T14:17:35.684Z,19.80
2023-03-29T14:21:01.881Z,20.00
2023-03-29T14:24:28.236Z,20.10
2023-03-29T14:27:50.270Z,20.00
2023-03-29T14:31:24.935Z,20.10
2023-03-29T14:34:51.119Z,20.00
2023-03-29T14:38:18.336Z,20.10
2023-03-29T14:41:44.172Z,19.80
2023-03-29T14:45:07.261Z,19.50
2023-03-29T14:48:30.810Z,19.70
2023-03-29T14:51:54.850Z,19.80
2023-03-29T14:55:19.295Z,19.80
2023-03-29T14:58:49.349Z,19.60
2023-03-29T15:02:38.076Z,19.60
2023-03-29T15:06:14.571Z,19.40
2023-03-29T15:09:42.616Z,19.40
2023-03-29T15:13:06.758Z,19.30
2023-03-29T15:16:30.606Z,19.20
2023-03-29T15:20:00.903Z,19.20
2023-03-29T15:23:29.232Z,19.00
2023-03-29T15:27:23.592Z,19.00
2023-03-29T15:30:54.235Z,18.80
2023-03-29T15:34:31.208Z,18.60
2023-03-29T15:37:53.436Z,18.50
2023-03-29T15:41:16.151Z,18.40
2023-03-29T15:44:39.256Z,18.20
2023-03-29T15:48:04.844Z,18.30
2023-03-29T15:51:26.898Z,18.30
2023-03-29T15:54:49.073Z,18.20
2023-03-29T15:58:19.470Z,18.20
2023-03-29T16:01:41.907Z,18.10
2023-03-29T16:05:04.131Z,18.10
2023-03-29T16:08:26.200Z,18.00
2023-03-29T16:11:50.056Z,18.00
2023-03-29T16:15:20.474Z,17.90
2023-03-29T16:18:44.964Z,17.80
2023-03-29T16:22:07.620Z,17.90
2023-03-29T16:25:29.867Z,17.80
2023-03-29T16:28:51.983Z,17.70
2023-03-29T16:32:13.923Z,17.70
2023-03-29T16:35:38.790Z,17.60
2023-03-29T16:39:01.680Z,17.50
2023-03-29T16:42:24.282Z,17.30
2023-03-29T16:45:47.389Z,17.10
2023-03-29T16:49:14.052Z,17.10
2023-03-29T16:52:37.896Z,17.00
2023-03-29T16:56:00.882Z,16.90
2023-03-29T16:59:27.274Z,16.70
2023-03-29T17:02:50.167Z,16.60
2023-03-29T17:06:12.511Z,16.50
2023-03-29T17:09:34.855Z,16.40
2023-03-29T17:12:58.124Z,16.30
2023-03-29T17:16:20.672Z,16.10
2023-03-29T17:19:42.844Z,16.00
2023-03-29T17:23:07.158Z,15.70
2023-03-29T17:26:29.201Z,15.40
2023-03-29T17:29:51.246Z,15.20
2023-03-29T17:33:13.616Z,15.10
2023-03-29T17:36:37.446Z,14.90
2023-03-29T17:39:59.396Z,14.60
2023-03-29T17:43:21.601Z,14.40
2023-03-29T17:46:43.566Z,14.20
2023-03-29T17:50:07.026Z,14.10
2023-03-29T17:53:29.076Z,13.90
2023-03-29T17:56:51.245Z,13.80
2023-03-29T18:00:14.737Z,13.70
2023-03-29T18:03:37.464Z,13.60
2023-03-29T18:06:59.598Z,13.40
2023-03-29T18:10:21.733Z,13.30
2023-03-29T18:13:44.931Z,13.20
2023-03-29T18:17:06.995Z,13.10
2023-03-29T18:20:29.103Z,13.10
2023-03-29T18:23:52.954Z,13.00
2023-03-29T18:27:16.751Z,12.80
2023-03-29T18:30:38.753Z,12.70
2023-03-29T18:34:00.981Z,12.70
2023-03-29T18:37:23.049Z,12.60
2023-03-29T18:40:47.785Z,12.60
2023-03-29T18:44:10.674Z,12.60
2023-03-29T18:47:33.205Z,12.40
2023-03-29T18:50:58.443Z,12.40
2023-03-29T18:54:20.855Z,12.20
2023-03-29T18:57:42.874Z,12.00
2023-03-29T19:01:06.499Z,11.80
2023-03-29T19:04:28.935Z,11.60
2023-03-29T19:07:51.801Z,11.60
2023-03-29T19:11:15.125Z,11.50
2023-03-29T19:14:37.141Z,11.60
2023-03-29T19:17:59.136Z,11.60
2023-03-29T19:21:21.444Z,11.60
2023-03-29T19:24:43.531Z,11.60
2023-03-29T19:28:05.608Z,11.50
2023-03-29T19:31:27.961Z,11.40
2023-03-29T19:34:50.424Z,11.40
2023-03-29T19:38:12.876Z,11.30
2023-03-29T19:41:34.967Z,11.20
2023-03-29T19:44:56.922Z,11.10
2023-03-29T19:48:23.863Z,10.90
2023-03-29T19:51:47.952Z,10.80
2023-03-29T19:55:10.627Z,10.70
2023-03-29T19:58:32.604Z,10.60
2023-03-29T20:01:56.895Z,10.50
2023-03-29T20:05:19.100Z,10.40
2023-03-29T20:08:41.336Z,10.40
2023-03-29T20:12:03.950Z,10.40
2023-03-29T20:15:26.132Z,10.30
2023-03-29T20:18:48.062Z,10.20
2023-03-29T20:22:11.362Z,10.10
2023-03-29T20:25:36.232Z,10.10
2023-03-29T20:28:58.267Z,10.10
2023-03-29T20:32:20.686Z,10.00
2023-03-29T20:35:48.744Z,10.00
2023-03-29T20:39:12.195Z,10.10
2023-03-29T20:42:38.756Z,10.10
2023-03-29T20:46:00.757Z,10.20
2023-03-29T20:49:26.546Z,10.20
2023-03-29T20:52:48.735Z,10.10
2023-03-29T20:56:10.855Z,10.20
2023-03-29T20:59:34.382Z,10.20
2023-03-29T21:03:00.298Z,10.20
2023-03-29T21:06:26.125Z,10.20
2023-03-29T21:09:51.404Z,10.30
2023-03-29T21:13:13.504Z,10.30
2023-03-29T21:16:45.328Z,10.30
2023-03-29T21:20:11.323Z,10.30
2023-03-29T21:23:33.788Z,10.30
2023-03-29T21:26:56.276Z,10.30
2023-03-29T21:30:19.533Z,10.30
2023-03-29T21:33:54.618Z,10.30
2023-03-29T21:37:17.086Z,10.20
2023-03-29T21:40:41.005Z,10.20
2023-03-29T21:44:04.288Z,10.20
2023-03-29T21:47:26.507Z,10.30
2023-03-29T21:50:50.532Z,10.30
2023-03-29T21:54:12.821Z,10.30
2023-03-29T21:57:34.902Z,10.30
2023-03-29T22:00:57.233Z,10.30
2023-03-29T22:04:29.588Z,10.20
2023-03-29T22:07:58.805Z,10.10
2023-03-29T22:11:21.007Z,10.00
2023-03-29T22:14:42.977Z,10.00
2023-03-29T22:18:05.316Z,10.00
2023-03-29T22:21:31.303Z,9.90
2023-03-29T22:24:59.574Z,9.90
2023-03-29T22:28:22.351Z,9.80
2023-03-29T22:31:44.563Z,9.90
2023-03-29T22:35:07.518Z,9.90
2023-03-29T22:38:29.687Z,9.80
2023-03-29T22:41:51.630Z,10.00
2023-03-29T22:45:14.291Z,10.20
2023-03-29T22:48:40.446Z,10.20
2023-03-29T22:52:02.612Z,10.40
2023-03-29T22:55:24.778Z,10.40
2023-03-29T22:58:47.127Z,10.40
2023-03-29T23:02:12.284Z,10.30
2023-03-29T23:05:34.768Z,10.20
2023-03-29T23:08:56.904Z,10.10
2023-03-29T23:12:18.858Z,10.10
2023-03-29T23:15:47.422Z,10.00
2023-03-29T23:19:09.748Z,10.00
2023-03-29T23:22:33.140Z,9.90
2023-03-29T23:25:56.048Z,9.90
2023-03-29T23:29:18.355Z,9.90
2023-03-29T23:32:40.470Z,9.90
2023-03-29T23:36:04.763Z,9.70
2023-03-29T23:39:26.934Z,9.80
2023-03-29T23:42:48.990Z,9.80
2023-03-29T23:46:16.545Z,9.80
2023-03-29T23:49:38.783Z,9.80
2023-03-29T23:53:00.733Z,9.90
2023-03-29T23:56:23.065Z,9.80
2023-03-29T23:59:45.006Z,9.70
